Time;durP1;ratioP1;P1;durP2;ratioP2;P2;SDS_P1;SDS_P2;PMS_P1;PMS_P2;Temp;Humidity;BMP_temperature;BMP_pressure;BME280_temperature;BME280_humidity;BME280_pressure;Samples;Min_cycle;Max_cycle;Signal;HPM_P1;HPM_P2
2023/09/19 00:00:35;;;;;;;1.35;0.98;;;;;;;-141.50;100.00;63355.56;5043336;28;20053;-80
2023/09/19 00:03:03;;;;;;;2.80;1.10;;;;;;;-141.50;100.00;63355.56;5043235;28;20049;-82
2023/09/19 00:05:35;;;;;;;3.95;0.85;;;;;;;-141.50;100.00;63355.56;5042967;28;20514;-81
2023/09/19 00:08:08;;;;;;;2.55;1.20;;;;;;;-141.50;100.00;63355.56;5056219;28;20174;-81
2023/09/19 00:10:34;;;;;;;2.38;1.15;;;;;;;-141.50;100.00;63355.56;5032564;28;20053;-81
2023/09/19 00:13:07;;;;;;;1.90;0.90;;;;;;;-141.50;100.00;63355.56;5039976;28;20044;-81
2023/09/19 00:15:51;;;;;;;2.92;0.98;;;;;;;-141.50;100.00;63355.56;5038318;28;20057;-81
2023/09/19 00:18:21;;;;;;;1.75;0.75;;;;;;;-141.50;100.00;63355.56;5052286;28;20862;-80
2023/09/19 00:20:52;;;;;;;1.48;0.70;;;;;;;-141.50;100.00;63355.56;5051508;28;20085;-80
2023/09/19 00:23:24;;;;;;;2.13;0.82;;;;;;;-141.50;100.00;63355.56;5051352;28;20057;-83
2023/09/19 00:25:51;;;;;;;1.15;0.70;;;;;;;-141.50;100.00;63355.56;5051134;28;20029;-78
2023/09/19 00:28:19;;;;;;;2.22;0.90;;;;;;;-141.50;100.00;63355.56;5050621;28;20049;-80
2023/09/19 00:30:54;;;;;;;2.28;0.88;;;;;;;-141.50;100.00;63355.56;5041252;28;20045;-79
2023/09/19 00:33:25;;;;;;;2.92;0.98;;;;;;;-141.50;100.00;63355.56;5042925;28;20040;-78
2023/09/19 00:35:54;;;;;;;1.60;0.82;;;;;;;-141.50;100.00;63355.56;5043311;28;20053;-78
2023/09/19 00:38:24;;;;;;;1.50;0.80;;;;;;;-141.50;100.00;63355.56;5042458;28;20049;-79
2023/09/19 00:40:51;;;;;;;1.20;0.88;;;;;;;-141.50;100.00;63355.56;5040897;28;20107;-78
2023/09/19 00:43:18;;;;;;;2.80;0.85;;;;;;;-141.50;100.00;63355.56;5035553;28;20073;-78
2023/09/19 00:45:48;;;;;;;1.73;0.70;;;;;;;-141.50;100.00;63355.56;5039970;28;20033;-80
2023/09/19 00:48:19;;;;;;;3.35;1.00;;;;;;;-141.50;100.00;63355.56;5041404;28;20049;-78
2023/09/19 00:50:48;;;;;;;1.73;0.70;;;;;;;-141.50;100.00;63355.56;5040607;28;20049;-79
2023/09/19 00:53:22;;;;;;;2.25;0.80;;;;;;;-141.50;100.00;63355.56;5028391;28;20050;-79
2023/09/19 00:55:51;;;;;;;1.42;0.60;;;;;;;-141.50;100.00;63355.56;5036695;28;20041;-79
2023/09/19 00:58:18;;;;;;;0.65;0.40;;;;;;;-141.50;100.00;63355.56;5037232;28;20061;-79
2023/09/19 01:00:48;;;;;;;3.97;0.60;;;;;;;-141.50;100.00;63355.56;5022988;28;20125;-78
2023/09/19 01:03:15;;;;;;;2.40;0.80;;;;;;;-141.50;100.00;63355.56;5029148;28;20056;-79
2023/09/19 01:05:42;;;;;;;1.48;0.73;;;;;;;-141.50;100.00;63355.56;5030717;28;20602;-80
2023/09/19 01:08:11;;;;;;;1.77;0.80;;;;;;;-141.50;100.00;63355.56;5031795;28;20416;-79
2023/09/19 01:10:50;;;;;;;2.03;0.80;;;;;;;-141.50;100.00;63355.56;4993115;28;20136;-80
2023/09/19 01:13:33;;;;;;;1.27;0.55;;;;;;;-141.50;100.00;63355.56;5023905;28;20415;-80
2023/09/19 01:16:26;;;;;;;2.47;0.90;;;;;;;-141.50;100.00;63355.56;5030373;28;20083;-79
2023/09/19 01:19:08;;;;;;;2.47;0.85;;;;;;;-141.50;100.00;63355.56;5049096;28;20048;-79
2023/09/19 01:21:55;;;;;;;2.72;0.82;;;;;;;-141.50;100.00;63355.56;5034451;28;20045;-79
2023/09/19 01:24:50;;;;;;;1.45;0.70;;;;;;;-141.50;100.00;63355.56;5008510;28;20068;-79
2023/09/19 01:27:40;;;;;;;2.50;0.60;;;;;;;-141.50;100.00;63355.56;5025742;28;20107;-79
2023/09/19 01:30:14;;;;;;;1.48;0.82;;;;;;;-141.50;100.00;63355.56;5022486;28;20143;-78
2023/09/19 01:32:43;;;;;;;3.15;0.93;;;;;;;-141.50;100.00;63355.56;5034407;28;20406;-79
2023/09/19 01:35:13;;;;;;;2.75;0.80;;;;;;;-141.50;100.00;63355.56;5026707;28;20374;-78
2023/09/19 01:37:43;;;;;;;1.55;0.80;;;;;;;-141.50;100.00;63355.56;5034123;28;21086;-79
2023/09/19 01:40:18;;;;;;;0.93;0.60;;;;;;;-141.50;100.00;63355.56;5025047;28;20596;-78
2023/09/19 01:43:11;;;;;;;1.40;0.83;;;;;;;-141.50;100.00;63355.56;5027733;28;20038;-79
2023/09/19 01:46:07;;;;;;;2.75;0.70;;;;;;;-141.50;100.00;63355.56;5037150;28;20061;-80
2023/09/19 01:48:33;;;;;;;1.73;0.70;;;;;;;-141.50;100.00;63355.56;5030569;28;20683;-80
2023/09/19 01:51:06;;;;;;;1.02;0.63;;;;;;;-141.50;100.00;63355.56;5013142;28;20095;-80
2023/09/19 01:53:43;;;;;;;1.60;1.00;;;;;;;-141.50;100.00;63355.56;5026303;28;20415;-79
2023/09/19 01:56:21;;;;;;;1.38;0.70;;;;;;;-141.50;100.00;63355.56;5025773;28;20746;-80
2023/09/19 01:58:53;;;;;;;4.00;0.80;;;;;;;-141.50;100.00;63355.56;5031404;28;20491;-80
2023/09/19 02:01:23;;;;;;;1.88;0.80;;;;;;;-141.50;100.00;63355.56;5027016;28;20141;-79
2023/09/19 02:03:53;;;;;;;1.63;0.57;;;;;;;-141.50;100.00;63355.56;5035002;28;20422;-79
2023/09/19 02:06:21;;;;;;;1.92;1.10;;;;;;;-141.50;100.00;63355.56;5035381;28;20227;-79
2023/09/19 02:08:49;;;;;;;2.08;0.80;;;;;;;-141.50;100.00;63355.56;5033127;28;20126;-78
2023/09/19 02:11:15;;;;;;;1.63;0.70;;;;;;;-141.50;100.00;63355.56;5031499;28;20056;-79
2023/09/19 02:13:45;;;;;;;1.52;0.70;;;;;;;-141.50;100.00;63355.56;5027470;28;20305;-79
2023/09/19 02:16:17;;;;;;;1.70;0.75;;;;;;;-141.50;100.00;63355.56;5025842;28;20095;-81
2023/09/19 02:18:44;;;;;;;1.45;0.70;;;;;;;-141.50;100.00;63355.56;5026611;28;20774;-80
2023/09/19 02:21:12;;;;;;;1.55;0.70;;;;;;;-141.50;100.00;63355.56;5023780;28;20069;-79
2023/09/19 02:23:41;;;;;;;2.25;0.70;;;;;;;-141.50;100.00;63355.56;5039598;28;20076;-79
2023/09/19 02:26:12;;;;;;;1.35;0.70;;;;;;;-141.50;100.00;63355.56;5032226;28;21583;-80
2023/09/19 02:28:39;;;;;;;1.30;0.70;;;;;;;-141.50;100.00;63355.56;5031502;28;20049;-79
2023/09/19 02:31:08;;;;;;;0.85;0.63;;;;;;;-141.50;100.00;63355.56;5030671;28;20132;-78
2023/09/19 02:33:37;;;;;;;2.35;0.80;;;;;;;-141.50;100.00;63355.56;5033222;28;20096;-79
2023/09/19 02:36:05;;;;;;;0.77;0.60;;;;;;;-141.50;100.00;63355.56;5032333;28;20519;-78
2023/09/19 02:38:32;;;;;;;1.73;0.80;;;;;;;-141.50;100.00;63355.56;5005462;28;20052;-79
2023/09/19 02:40:59;;;;;;;2.80;0.90;;;;;;;-141.50;100.00;63355.56;5059443;28;20056;-79
2023/09/19 02:43:27;;;;;;;1.35;0.80;;;;;;;-141.50;100.00;63355.56;5039753;28;20045;-80
2023/09/19 02:45:54;;;;;;;2.78;0.90;;;;;;;-141.50;100.00;63355.56;5028786;28;20049;-79
2023/09/19 02:48:21;;;;;;;1.40;0.80;;;;;;;-141.50;100.00;63355.56;5004981;28;20128;-78
2023/09/19 02:50:52;;;;;;;1.70;0.82;;;;;;;-141.50;100.00;63355.56;5037142;28;20382;-79
2023/09/19 02:53:19;;;;;;;3.20;0.80;;;;;;;-141.50;100.00;63355.56;5037139;28;20644;-81
2023/09/19 02:55:49;;;;;;;1.50;0.73;;;;;;;-141.50;100.00;63355.56;5036507;28;20072;-79
2023/09/19 02:58:18;;;;;;;3.45;1.10;;;;;;;-141.50;100.00;63355.56;5032232;28;20045;-78
2023/09/19 03:00:49;;;;;;;2.33;0.90;;;;;;;-141.50;100.00;63355.56;5015641;28;20041;-80
2023/09/19 03:03:17;;;;;;;2.30;1.08;;;;;;;-141.50;100.00;63355.56;5030401;28;20503;-79
2023/09/19 03:05:46;;;;;;;1.00;0.68;;;;;;;-141.50;100.00;63355.56;5030633;28;20045;-80
2023/09/19 03:08:16;;;;;;;2.75;1.00;;;;;;;-141.50;100.00;63355.56;5022535;28;20057;-81
2023/09/19 03:10:47;;;;;;;1.65;0.90;;;;;;;-141.50;100.00;63355.56;5027097;28;20053;-79
2023/09/19 03:13:17;;;;;;;1.50;0.80;;;;;;;-141.50;100.00;63355.56;5025813;28;20095;-79
2023/09/19 03:15:46;;;;;;;2.80;1.10;;;;;;;-141.50;100.00;63355.56;5029898;28;20412;-80
2023/09/19 03:18:19;;;;;;;2.20;0.90;;;;;;;-141.50;100.00;63355.56;5032291;28;20064;-80
2023/09/19 03:20:56;;;;;;;1.38;0.75;;;;;;;-141.50;100.00;63355.56;5016276;28;20534;-80
2023/09/19 03:23:23;;;;;;;1.27;0.77;;;;;;;-141.50;100.00;63355.56;5011332;28;20513;-78
2023/09/19 03:25:50;;;;;;;2.10;1.00;;;;;;;-141.50;100.00;63355.56;5015174;28;20048;-81
2023/09/19 03:28:17;;;;;;;1.27;0.80;;;;;;;-141.50;100.00;63355.56;5011135;28;20050;-80
2023/09/19 03:30:44;;;;;;;1.85;0.80;;;;;;;-141.50;100.00;63355.56;5024244;28;20037;-80
2023/09/19 03:33:12;;;;;;;1.70;0.90;;;;;;;-141.50;100.00;63355.56;5025515;28;20530;-80
2023/09/19 03:35:40;;;;;;;4.00;1.17;;;;;;;-141.50;100.00;63355.56;5031007;28;20061;-80
2023/09/19 03:38:07;;;;;;;1.60;0.95;;;;;;;-141.50;100.00;63355.56;5035380;28;20061;-80
2023/09/19 03:40:34;;;;;;;2.92;0.95;;;;;;;-141.50;100.00;63355.56;5021168;28;20076;-80
2023/09/19 03:43:01;;;;;;;1.75;1.10;;;;;;;-141.50;100.00;63355.56;5027932;28;20053;-80
2023/09/19 03:45:29;;;;;;;1.35;0.80;;;;;;;-141.50;100.00;63355.56;5051255;28;20041;-80
2023/09/19 03:47:56;;;;;;;4.60;1.05;;;;;;;-141.50;100.00;63355.56;5050693;28;20045;-79
2023/09/19 03:50:23;;;;;;;2.67;1.08;;;;;;;-141.50;100.00;63355.56;5051391;28;20135;-81
2023/09/19 03:52:56;;;;;;;1.98;1.00;;;;;;;-141.50;100.00;63355.56;5019984;28;20474;-80
2023/09/19 03:55:23;;;;;;;1.40;0.85;;;;;;;-141.50;100.00;63355.56;5048268;28;20049;-80
2023/09/19 03:57:50;;;;;;;1.52;0.75;;;;;;;-141.50;100.00;63355.56;5035158;28;20045;-80
2023/09/19 04:00:20;;;;;;;0.95;0.70;;;;;;;-141.50;100.00;63355.56;5032691;28;20115;-80
2023/09/19 04:02:48;;;;;;;1.23;0.88;;;;;;;-141.50;100.00;63355.56;5029054;28;20133;-80
2023/09/19 04:05:16;;;;;;;3.30;0.82;;;;;;;-141.50;100.00;63355.56;5031650;28;20296;-80
2023/09/19 04:07:43;;;;;;;2.10;0.98;;;;;;;-141.50;100.00;63355.56;5025585;28;20096;-80
2023/09/19 04:10:14;;;;;;;2.42;0.80;;;;;;;-141.50;100.00;63355.56;5028931;28;20042;-80
2023/09/19 04:12:51;;;;;;;2.58;1.02;;;;;;;-141.50;100.00;63355.56;5024319;28;20416;-80
2023/09/19 04:15:18;;;;;;;2.17;0.88;;;;;;;-141.50;100.00;63355.56;5029198;28;20037;-80
2023/09/19 04:17:45;;;;;;;1.80;0.90;;;;;;;-141.50;100.00;63355.56;5029378;28;20052;-81
2023/09/19 04:20:12;;;;;;;4.25;0.93;;;;;;;-141.50;100.00;63355.56;5016649;28;20037;-79
2023/09/19 04:22:39;;;;;;;1.63;0.90;;;;;;;-141.50;100.00;63355.56;5046125;28;20049;-79
2023/09/19 04:25:06;;;;;;;1.50;0.80;;;;;;;-141.50;100.00;63355.56;5047251;28;20080;-80
2023/09/19 04:27:34;;;;;;;1.90;1.20;;;;;;;-141.50;100.00;63355.56;5040622;28;20049;-80
2023/09/19 04:30:03;;;;;;;2.38;0.82;;;;;;;-141.50;100.00;63355.56;5041984;28;20069;-82
2023/09/19 04:32:32;;;;;;;6.63;0.90;;;;;;;-141.50;100.00;63355.56;5043999;28;20053;-83
2023/09/19 04:35:01;;;;;;;1.10;0.75;;;;;;;-141.50;100.00;63355.56;5049953;28;20049;-83
2023/09/19 04:37:28;;;;;;;1.30;0.80;;;;;;;-141.50;100.00;63355.56;5041140;28;20072;-83
2023/09/19 04:39:55;;;;;;;2.28;1.00;;;;;;;-141.50;100.00;63355.56;5029188;28;20132;-84
2023/09/19 04:42:24;;;;;;;2.17;1.13;;;;;;;-141.50;100.00;63355.56;5017197;28;21073;-84
2023/09/19 04:44:52;;;;;;;1.83;0.98;;;;;;;-141.50;100.00;63355.56;5029988;28;20076;-83
2023/09/19 04:47:21;;;;;;;1.17;0.60;;;;;;;-141.50;100.00;63355.56;5027761;28;20056;-85
2023/09/19 04:49:59;;;;;;;3.38;0.75;;;;;;;-141.50;100.00;63355.56;5022896;28;20057;-81
2023/09/19 04:52:26;;;;;;;3.65;0.80;;;;;;;-141.50;100.00;63355.56;5027099;28;20302;-81
2023/09/19 04:54:53;;;;;;;2.47;0.88;;;;;;;-141.50;100.00;63355.56;5027183;28;20068;-81
2023/09/19 04:57:20;;;;;;;2.67;0.90;;;;;;;-141.50;100.00;63355.56;5027344;28;20527;-80
2023/09/19 04:59:47;;;;;;;2.80;0.95;;;;;;;-141.50;100.00;63355.56;5032114;28;20060;-81
2023/09/19 05:02:14;;;;;;;1.55;1.13;;;;;;;-141.50;100.00;63355.56;5031085;28;20037;-81
2023/09/19 05:04:41;;;;;;;1.10;0.80;;;;;;;-141.50;100.00;63355.56;5028260;28;20417;-81
2023/09/19 05:07:07;;;;;;;1.60;0.80;;;;;;;-141.50;100.00;63355.56;5032464;28;20651;-82
2023/09/19 05:09:35;;;;;;;3.30;0.90;;;;;;;-141.50;100.00;63355.56;5033235;28;20616;-80
2023/09/19 05:12:04;;;;;;;1.70;1.00;;;;;;;-141.50;100.00;63355.56;5028881;28;20052;-82
2023/09/19 05:14:31;;;;;;;1.63;1.00;;;;;;;-141.50;100.00;63355.56;5034871;28;20085;-81
2023/09/19 05:16:58;;;;;;;1.02;0.65;;;;;;;-141.50;100.00;63355.56;5032370;28;20048;-81
2023/09/19 05:19:24;;;;;;;1.00;0.80;;;;;;;-141.50;100.00;63355.56;5033214;28;20041;-81
2023/09/19 05:21:51;;;;;;;1.52;0.80;;;;;;;-141.50;100.00;63355.56;5033676;28;20408;-82
2023/09/19 05:24:18;;;;;;;1.60;0.80;;;;;;;-141.50;100.00;63355.56;5032633;28;20061;-81
2023/09/19 05:26:45;;;;;;;2.03;0.80;;;;;;;-141.50;100.00;63355.56;5045480;28;20084;-81
2023/09/19 05:29:12;;;;;;;1.80;0.70;;;;;;;-141.50;100.00;63355.56;5050013;28;20054;-81
2023/09/19 05:31:40;;;;;;;3.10;0.90;;;;;;;-141.50;100.00;63355.56;5026306;28;20067;-81
2023/09/19 05:34:08;;;;;;;1.48;1.00;;;;;;;-141.50;100.00;63355.56;5041429;28;20057;-80
2023/09/19 05:36:34;;;;;;;1.42;0.80;;;;;;;-141.50;100.00;63355.56;5034568;28;20056;-81
2023/09/19 05:39:01;;;;;;;3.13;0.90;;;;;;;-141.50;100.00;63355.56;5025202;28;20152;-82
2023/09/19 05:41:28;;;;;;;1.95;0.90;;;;;;;-141.50;100.00;63355.56;5028919;28;20057;-82
2023/09/19 05:43:55;;;;;;;1.42;0.82;;;;;;;-141.50;100.00;63355.56;5029202;28;20061;-82
2023/09/19 05:46:22;;;;;;;2.28;0.90;;;;;;;-141.50;100.00;63355.56;5029056;28;20045;-81
2023/09/19 05:48:49;;;;;;;1.85;1.00;;;;;;;-141.50;100.00;63355.56;5028365;28;20107;-82
2023/09/19 05:51:17;;;;;;;1.65;0.80;;;;;;;-141.50;100.00;63355.56;5028535;28;20080;-81
2023/09/19 05:53:44;;;;;;;1.25;0.73;;;;;;;-141.50;100.00;63355.56;5026594;28;20268;-81
2023/09/19 05:56:11;;;;;;;2.20;0.73;;;;;;;-141.50;100.00;63355.56;5029668;28;20109;-82
2023/09/19 05:58:38;;;;;;;1.92;0.80;;;;;;;-141.50;100.00;63355.56;5027505;28;20500;-82
2023/09/19 06:01:07;;;;;;;1.98;1.00;;;;;;;-141.50;100.00;63355.56;5031120;28;20049;-82
2023/09/19 06:03:35;;;;;;;0.90;0.60;;;;;;;-141.50;100.00;63355.56;5032085;28;20091;-81
2023/09/19 06:06:02;;;;;;;1.10;0.70;;;;;;;-141.50;100.00;63355.56;5031465;28;20068;-82
2023/09/19 06:08:31;;;;;;;1.52;0.95;;;;;;;-141.50;100.00;63355.56;5032501;28;20038;-81
2023/09/19 06:10:57;;;;;;;1.30;0.98;;;;;;;-141.50;100.00;63355.56;5028332;28;21474;-82
2023/09/19 06:13:26;;;;;;;2.50;0.93;;;;;;;-141.50;100.00;63355.56;5029008;28;20056;-81
2023/09/19 06:15:56;;;;;;;2.40;0.80;;;;;;;-141.50;100.00;63355.56;5028116;28;20056;-81
2023/09/19 06:18:26;;;;;;;1.63;0.77;;;;;;;-141.50;100.00;63355.56;5028786;28;20116;-82
2023/09/19 06:20:53;;;;;;;1.20;0.68;;;;;;;-141.50;100.00;63355.56;5032671;28;20053;-81
2023/09/19 06:23:20;;;;;;;1.50;0.77;;;;;;;-141.50;100.00;63355.56;5043116;28;20041;-81
2023/09/19 06:25:48;;;;;;;1.50;0.80;;;;;;;-141.50;100.00;63355.56;5045581;28;20053;-81
2023/09/19 06:28:18;;;;;;;5.05;1.00;;;;;;;-141.50;100.00;63355.56;5038975;28;20041;-80
2023/09/19 06:30:45;;;;;;;1.23;0.70;;;;;;;-141.50;100.00;63355.56;5030312;28;20091;-80
2023/09/19 06:33:12;;;;;;;1.40;0.90;;;;;;;-141.50;100.00;63355.56;5027529;28;20119;-81
2023/09/19 06:35:44;;;;;;;1.83;0.90;;;;;;;-141.50;100.00;63355.56;5028141;28;20717;-81
2023/09/19 06:38:12;;;;;;;3.80;1.17;;;;;;;-141.50;100.00;63355.56;5026948;28;20379;-82
2023/09/19 06:40:42;;;;;;;1.77;0.77;;;;;;;-141.50;100.00;63355.56;5026402;28;20742;-81
2023/09/19 06:43:10;;;;;;;1.83;0.70;;;;;;;-141.50;100.00;63355.56;5027322;28;20056;-81
2023/09/19 06:45:37;;;;;;;1.15;0.75;;;;;;;-141.50;100.00;63355.56;5031894;28;20045;-81
2023/09/19 06:48:05;;;;;;;1.67;0.80;;;;;;;-141.50;100.00;63355.56;5032495;28;20041;-82
2023/09/19 06:50:32;;;;;;;1.15;0.63;;;;;;;-141.50;100.00;63355.56;5030864;28;20333;-82
2023/09/19 06:53:00;;;;;;;1.55;0.95;;;;;;;-141.50;100.00;63355.56;5031133;28;20264;-82
2023/09/19 06:55:31;;;;;;;1.60;0.88;;;;;;;-141.50;100.00;63355.56;5022411;28;20303;-82
2023/09/19 06:57:59;;;;;;;1.40;0.80;;;;;;;-141.50;100.00;63355.56;5042841;28;20060;-81
2023/09/19 07:00:25;;;;;;;1.88;1.00;;;;;;;-141.50;100.00;63355.56;5025913;28;20492;-82
2023/09/19 07:03:00;;;;;;;1.92;0.90;;;;;;;-141.50;100.00;63355.56;5008921;28;20446;-81
2023/09/19 07:05:27;;;;;;;1.13;0.73;;;;;;;-141.50;100.00;63355.56;5027176;28;20099;-81
2023/09/19 07:07:55;;;;;;;2.15;1.10;;;;;;;-141.50;100.00;63355.56;5024285;28;20124;-81
2023/09/19 07:10:25;;;;;;;3.13;1.02;;;;;;;-141.50;100.00;63355.56;5025120;28;20072;-81
2023/09/19 07:13:03;;;;;;;3.00;0.90;;;;;;;-141.50;100.00;63355.56;5026476;28;20615;-82
2023/09/19 07:15:36;;;;;;;1.75;0.80;;;;;;;-141.50;100.00;63355.56;5034076;28;20064;-82
2023/09/19 07:18:03;;;;;;;2.75;1.02;;;;;;;-141.50;100.00;63355.56;5042965;28;20045;-81
2023/09/19 07:20:32;;;;;;;1.30;0.73;;;;;;;-141.50;100.00;63355.56;5041555;28;20100;-81
2023/09/19 07:22:59;;;;;;;3.38;0.90;;;;;;;-141.50;100.00;63355.56;5033408;28;20149;-81
2023/09/19 07:25:30;;;;;;;2.65;0.98;;;;;;;-141.50;100.00;63355.56;5033051;28;20072;-82
2023/09/19 07:27:59;;;;;;;1.30;0.70;;;;;;;-141.50;100.00;63355.56;5031411;28;20554;-81
2023/09/19 07:30:28;;;;;;;2.40;0.70;;;;;;;-141.50;100.00;63355.56;5032556;28;20110;-82
2023/09/19 07:32:56;;;;;;;2.22;0.90;;;;;;;-141.50;100.00;63355.56;5031215;28;20048;-81
2023/09/19 07:35:23;;;;;;;2.13;0.80;;;;;;;-141.50;100.00;63355.56;5024885;28;20096;-81
2023/09/19 07:37:53;;;;;;;2.17;0.73;;;;;;;-141.50;100.00;63355.56;5012978;28;20045;-81
2023/09/19 07:40:21;;;;;;;1.17;0.68;;;;;;;-141.50;100.00;63355.56;5030703;28;20636;-81
2023/09/19 07:42:48;;;;;;;0.80;0.57;;;;;;;-141.50;100.00;63355.56;5029804;28;20045;-83
2023/09/19 07:45:17;;;;;;;1.95;0.88;;;;;;;-141.50;100.00;63355.56;5024224;28;20045;-81
2023/09/19 07:47:49;;;;;;;1.88;0.80;;;;;;;-141.50;100.00;63355.56;5029484;28;20052;-82
2023/09/19 07:50:18;;;;;;;1.27;0.60;;;;;;;-141.50;100.00;63355.56;5023283;28;20041;-81
2023/09/19 07:52:50;;;;;;;1.40;0.70;;;;;;;-141.50;100.00;63355.56;5028790;28;20081;-81
2023/09/19 07:55:19;;;;;;;1.70;0.80;;;;;;;-141.50;100.00;63355.56;5023371;28;20464;-81
2023/09/19 07:57:47;;;;;;;1.25;0.70;;;;;;;-141.50;100.00;63355.56;5030529;28;20124;-82
2023/09/19 08:00:14;;;;;;;1.60;0.70;;;;;;;-141.50;100.00;63355.56;5021975;28;20045;-82
2023/09/19 08:02:42;;;;;;;1.33;0.80;;;;;;;-141.50;100.00;63355.56;5030097;28;20046;-82
2023/09/19 08:05:11;;;;;;;2.15;0.80;;;;;;;-141.50;100.00;63355.56;5034773;28;20064;-81
2023/09/19 08:07:39;;;;;;;1.00;0.63;;;;;;;-141.50;100.00;63355.56;5036377;28;20057;-80
2023/09/19 08:10:08;;;;;;;1.20;0.63;;;;;;;-141.50;100.00;63355.56;5046258;28;20049;-80
2023/09/19 08:12:37;;;;;;;2.05;0.80;;;;;;;-141.50;100.00;63355.56;5036647;28;20129;-79
2023/09/19 08:15:05;;;;;;;2.15;0.80;;;;;;;-141.50;100.00;63355.56;5040881;28;20069;-81
2023/09/19 08:17:35;;;;;;;1.92;0.75;;;;;;;-141.50;100.00;63355.56;5042364;28;20472;-82
2023/09/19 08:20:05;;;;;;;1.33;0.60;;;;;;;-141.50;100.00;63355.56;5038180;28;20041;-82
2023/09/19 08:22:32;;;;;;;2.05;0.70;;;;;;;-141.50;100.00;63355.56;5035200;28;20037;-81
2023/09/19 08:24:59;;;;;;;1.40;0.82;;;;;;;-141.50;100.00;63355.56;5036468;28;20107;-79
2023/09/19 08:27:28;;;;;;;1.25;0.50;;;;;;;-141.50;100.00;63355.56;5020684;28;20046;-80
2023/09/19 08:29:55;;;;;;;3.05;1.00;;;;;;;-141.50;100.00;63355.56;5039130;28;20279;-81
2023/09/19 08:32:24;;;;;;;2.42;0.70;;;;;;;-141.50;100.00;63355.56;5038989;28;20052;-80
2023/09/19 08:34:51;;;;;;;2.03;0.80;;;;;;;-141.50;100.00;63355.56;5038370;28;20690;-81
2023/09/19 08:37:18;;;;;;;1.98;0.70;;;;;;;-141.50;100.00;63355.56;5039418;28;20053;-81
2023/09/19 08:39:46;;;;;;;1.60;0.60;;;;;;;-141.50;100.00;63355.56;5040574;28;20041;-81
2023/09/19 08:42:13;;;;;;;2.10;0.52;;;;;;;-141.50;100.00;63355.56;5020058;28;20577;-82
2023/09/19 08:44:40;;;;;;;2.00;0.73;;;;;;;-141.50;100.00;63355.56;5034208;28;20045;-81
2023/09/19 08:47:11;;;;;;;1.20;0.60;;;;;;;-141.50;100.00;63355.56;5049300;28;20053;-83
2023/09/19 08:49:53;;;;;;;1.90;0.50;;;;;;;-141.50;100.00;63355.56;5033798;28;20154;-82
2023/09/19 08:52:25;;;;;;;1.77;0.70;;;;;;;-141.50;100.00;63355.56;5030839;28;20041;-83
2023/09/19 08:54:53;;;;;;;1.58;0.45;;;;;;;-141.50;100.00;63355.56;5032983;28;20178;-82
2023/09/19 08:57:22;;;;;;;1.90;0.60;;;;;;;-141.50;100.00;63355.56;5035130;28;20049;-82
2023/09/19 08:59:49;;;;;;;2.45;0.57;;;;;;;-141.50;100.00;63355.56;5033371;28;20045;-83
2023/09/19 09:02:19;;;;;;;3.58;0.70;;;;;;;-141.50;100.00;63355.56;5036682;28;20107;-80
2023/09/19 09:04:47;;;;;;;1.00;0.60;;;;;;;-141.50;100.00;63355.56;5040387;28;20133;-81
2023/09/19 09:07:14;;;;;;;1.23;0.60;;;;;;;-141.50;100.00;63355.56;5038313;28;20045;-81
2023/09/19 09:09:42;;;;;;;1.25;0.43;;;;;;;-141.50;100.00;63355.56;5034441;28;20049;-80
2023/09/19 09:12:13;;;;;;;0.93;0.40;;;;;;;-141.50;100.00;63355.56;5031961;28;20049;-81
2023/09/19 09:14:41;;;;;;;1.45;0.70;;;;;;;-141.50;100.00;63355.56;5032800;28;20527;-81
2023/09/19 09:17:08;;;;;;;1.00;0.52;;;;;;;-141.50;100.00;63355.56;5032759;28;20053;-82
2023/09/19 09:19:35;;;;;;;1.13;0.47;;;;;;;-141.50;100.00;63355.56;5029495;28;20038;-81
2023/09/19 09:22:07;;;;;;;2.85;0.80;;;;;;;-141.50;100.00;63355.56;5030583;28;20069;-82
2023/09/19 09:24:36;;;;;;;1.05;0.50;;;;;;;-141.50;100.00;63355.56;5032885;28;20045;-82
2023/09/19 09:27:05;;;;;;;1.52;0.55;;;;;;;-141.50;100.00;63355.56;5031149;28;20049;-83
2023/09/19 09:29:50;;;;;;;0.90;0.50;;;;;;;-141.50;100.00;63355.56;5030891;28;20130;-82
2023/09/19 09:32:20;;;;;;;1.48;0.60;;;;;;;-141.50;100.00;63355.56;5040529;28;20046;-82
2023/09/19 09:34:51;;;;;;;0.75;0.47;;;;;;;-141.50;100.00;63355.56;5032053;28;20038;-81
2023/09/19 09:37:21;;;;;;;1.50;0.60;;;;;;;-141.50;100.00;63355.56;5028500;28;20136;-82
2023/09/19 09:39:54;;;;;;;1.90;0.63;;;;;;;-141.50;100.00;63355.56;5034769;28;20052;-81
2023/09/19 09:42:39;;;;;;;1.15;0.50;;;;;;;-141.50;100.00;63355.56;5032594;28;20054;-82
2023/09/19 09:48:13;;;;;;;2.03;0.60;;;;;;;-141.50;100.00;63355.56;5031934;28;20318;-82
2023/09/19 09:53:29;;;;;;;0.82;0.40;;;;;;;-141.50;100.00;63355.56;5029302;28;20045;-80
2023/09/19 09:56:07;;;;;;;1.05;0.55;;;;;;;-141.50;100.00;63355.56;5037997;28;20041;-80
2023/09/19 09:58:48;;;;;;;2.35;0.80;;;;;;;-141.50;100.00;63355.56;5037090;28;20124;-82
2023/09/19 10:01:17;;;;;;;2.20;0.60;;;;;;;-141.50;100.00;63355.56;5030133;28;20066;-82
2023/09/19 10:03:47;;;;;;;1.77;0.57;;;;;;;-141.50;100.00;63355.56;5040888;28;20055;-80
2023/09/19 10:06:34;;;;;;;1.50;0.50;;;;;;;-141.50;100.00;63355.56;5045274;28;20049;-83
2023/09/19 10:09:14;;;;;;;1.00;0.47;;;;;;;-141.50;100.00;63355.56;5032261;28;20757;-82
2023/09/19 10:11:51;;;;;;;1.20;0.60;;;;;;;-141.50;100.00;63355.56;5034817;28;20045;-80
2023/09/19 10:14:23;;;;;;;8.25;0.90;;;;;;;-141.50;100.00;63355.56;5029464;28;20419;-81
2023/09/19 10:16:53;;;;;;;1.20;0.68;;;;;;;-141.50;100.00;63355.56;5036680;28;20068;-82
2023/09/19 10:19:30;;;;;;;1.40;0.68;;;;;;;-141.50;100.00;63355.56;5038861;28;20049;-79
2023/09/19 10:22:01;;;;;;;1.40;0.60;;;;;;;-141.50;100.00;63355.56;5038883;28;20053;-81
2023/09/19 10:24:31;;;;;;;2.22;0.65;;;;;;;-141.50;100.00;63355.56;5038067;28;20041;-80
2023/09/19 10:26:59;;;;;;;1.10;0.70;;;;;;;-141.50;100.00;63355.56;5034258;28;20071;-81
2023/09/19 10:29:31;;;;;;;1.85;0.70;;;;;;;-141.50;100.00;63355.56;5032651;28;20065;-80
2023/09/19 10:31:59;;;;;;;0.73;0.50;;;;;;;-141.50;100.00;63355.56;5033538;28;20159;-81
2023/09/19 10:34:30;;;;;;;1.75;0.75;;;;;;;-141.50;100.00;63355.56;5034361;28;20038;-81
2023/09/19 10:36:57;;;;;;;3.88;0.77;;;;;;;-141.50;100.00;63355.56;5030968;28;21191;-81
2023/09/19 10:39:25;;;;;;;4.55;0.68;;;;;;;-141.50;100.00;63355.56;5034616;28;20048;-80
2023/09/19 10:41:58;;;;;;;1.50;0.55;;;;;;;-141.50;100.00;63355.56;5039986;28;20056;-79
2023/09/19 10:44:26;;;;;;;5.28;0.80;;;;;;;-141.50;100.00;63355.56;5032199;28;20101;-81
2023/09/19 10:46:53;;;;;;;5.25;0.82;;;;;;;-141.50;100.00;63355.56;5024795;28;20068;-81
2023/09/19 10:49:22;;;;;;;2.15;0.63;;;;;;;-141.50;100.00;63355.56;5035855;28;20049;-81
2023/09/19 10:51:58;;;;;;;2.05;0.75;;;;;;;-141.50;100.00;63355.56;5030751;28;20067;-81
2023/09/19 10:54:28;;;;;;;;;;;;;;;-141.50;100.00;63355.56;5045696;28;20049;-80
2023/09/19 10:56:58;;;;;;;1.10;0.68;;;;;;;-141.50;100.00;63355.56;5028815;28;19921;-81
2023/09/19 10:59:34;;;;;;;3.15;0.88;;;;;;;-141.50;100.00;63355.56;5037106;28;20049;-80
2023/09/19 11:02:17;;;;;;;1.27;0.60;;;;;;;-141.50;100.00;63355.56;5051695;28;20056;-80
2023/09/19 11:04:47;;;;;;;0.80;0.60;;;;;;;-141.50;100.00;63355.56;5043943;28;20693;-80
2023/09/19 11:07:15;;;;;;;1.60;0.75;;;;;;;-141.50;100.00;63355.56;5042214;28;20056;-80
2023/09/19 11:09:48;;;;;;;1.35;0.70;;;;;;;-141.50;100.00;63355.56;5038494;28;20052;-80
2023/09/19 11:12:40;;;;;;;1.20;0.60;;;;;;;-141.50;100.00;63355.56;5038793;28;20072;-80
2023/09/19 11:15:10;;;;;;;1.75;0.57;;;;;;;-141.50;100.00;63355.56;5057680;28;20121;-80
2023/09/19 11:17:47;;;;;;;1.88;0.65;;;;;;;-141.50;100.00;63355.56;5029886;28;20045;-80
2023/09/19 11:20:24;;;;;;;1.20;0.57;;;;;;;-141.50;100.00;63355.56;5036124;28;20089;-81
2023/09/19 11:22:56;;;;;;;2.42;0.70;;;;;;;-141.50;100.00;63355.56;5036871;28;20704;-79
2023/09/19 11:25:30;;;;;;;1.98;0.70;;;;;;;-141.50;100.00;63355.56;5050967;28;20049;-80
2023/09/19 11:28:28;;;;;;;1.00;0.60;;;;;;;-141.50;100.00;63355.56;5039622;28;20077;-81